createdAt,value
2022-09-06T00:00:41.457Z,44.08
2022-09-06T00:01:41.471Z,47.04
2022-09-06T00:02:42.611Z,52.61
2022-09-06T00:03:41.536Z,47.87
2022-09-06T00:04:41.431Z,46.26
2022-09-06T00:05:41.410Z,50.01
2022-09-06T00:06:41.410Z,47.12
2022-09-06T00:07:41.418Z,48.37
2022-09-06T00:08:41.449Z,45.07
2022-09-06T00:09:41.370Z,50.11
2022-09-06T00:10:41.378Z,48.45
2022-09-06T00:11:41.398Z,44.61
2022-09-06T00:12:41.373Z,49.22
2022-09-06T00:13:41.368Z,46.48
2022-09-06T00:14:41.362Z,47.81
2022-09-06T00:15:41.442Z,58.49
2022-09-06T00:16:41.348Z,55.42
2022-09-06T00:17:41.321Z,45.52
2022-09-06T00:18:41.318Z,49.90
2022-09-06T00:19:41.296Z,50.76
2022-09-06T00:20:41.304Z,45.67
2022-09-06T00:21:41.324Z,50.57
2022-09-06T00:22:41.275Z,50.55
2022-09-06T00:23:41.298Z,51.31
2022-09-06T00:24:41.273Z,56.08
2022-09-06T00:25:41.255Z,55.10
2022-09-06T00:26:41.267Z,44.22
2022-09-06T00:27:41.329Z,54.19
2022-09-06T00:28:41.286Z,50.72
2022-09-06T00:29:41.226Z,47.72
2022-09-06T00:30:41.287Z,54.86
2022-09-06T00:31:41.218Z,45.40
2022-09-06T00:32:41.254Z,54.12
2022-09-06T00:33:41.228Z,46.34
2022-09-06T00:34:41.227Z,50.81
2022-09-06T00:35:41.211Z,45.19
2022-09-06T00:36:41.220Z,56.07
2022-09-06T00:37:41.137Z,49.26
2022-09-06T00:38:41.172Z,57.46
2022-09-06T00:39:41.185Z,56.35
2022-09-06T00:40:41.147Z,48.26
2022-09-06T00:41:41.141Z,55.12
2022-09-06T00:42:41.133Z,50.57
2022-09-06T00:43:41.143Z,45.29
2022-09-06T00:44:41.099Z,50.72
2022-09-06T00:45:41.133Z,54.53
2022-09-06T00:46:41.127Z,49.86
2022-09-06T00:47:41.107Z,55.92
2022-09-06T00:48:41.072Z,51.38
2022-09-06T00:49:41.203Z,54.76
2022-09-06T00:50:41.749Z,45.54
2022-09-06T00:51:41.051Z,49.92
2022-09-06T00:52:41.043Z,48.26
2022-09-06T00:53:41.021Z,53.46
2022-09-06T00:54:41.054Z,53.85
2022-09-06T00:55:41.057Z,55.90
2022-09-06T00:56:41.041Z,52.17
2022-09-06T00:57:41.025Z,49.01
2022-09-06T00:58:41.008Z,47.16
2022-09-06T00:59:41.036Z,52.68
2022-09-06T01:00:41.024Z,46.96
2022-09-06T01:01:42.036Z,50.76
2022-09-06T01:02:41.162Z,61.72
2022-09-06T01:03:40.971Z,45.13
2022-09-06T01:04:41.790Z,50.28
2022-09-06T01:05:41.747Z,50.52
2022-09-06T01:06:40.920Z,51.38
2022-09-06T01:07:40.929Z,44.86
2022-09-06T01:08:41.088Z,45.54
2022-09-06T01:09:40.954Z,44.02
2022-09-06T01:10:40.936Z,51.29
2022-09-06T01:11:40.899Z,48.07
2022-09-06T01:12:40.920Z,46.51
2022-09-06T01:13:40.902Z,55.62
2022-09-06T01:14:40.951Z,49.77
2022-09-06T01:15:40.967Z,49.23
2022-09-06T01:16:40.904Z,51.12
2022-09-06T01:17:40.907Z,52.01
2022-09-06T01:18:40.861Z,55.30
2022-09-06T01:19:40.858Z,45.18
2022-09-06T01:20:40.894Z,46.02
2022-09-06T01:21:40.852Z,51.85
2022-09-06T01:22:40.816Z,49.35
2022-09-06T01:23:40.806Z,67.08
2022-09-06T01:24:40.806Z,46.12
2022-09-06T01:25:40.845Z,52.18
2022-09-06T01:26:40.878Z,48.47
2022-09-06T01:27:40.808Z,50.86
2022-09-06T01:28:40.787Z,55.99
2022-09-06T01:29:40.782Z,53.07
2022-09-06T01:30:40.860Z,43.62
2022-09-06T01:31:40.758Z,44.33
2022-09-06T01:32:40.734Z,55.07
2022-09-06T01:33:40.728Z,45.30
2022-09-06T01:34:40.715Z,43.69
2022-09-06T01:35:40.748Z,45.05
2022-09-06T01:36:54.398Z,53.68
2022-09-06T01:37:42.740Z,45.10
2022-09-06T01:38:40.783Z,56.83
2022-09-06T01:39:40.773Z,48.81
2022-09-06T01:40:40.680Z,50.35
2022-09-06T01:41:40.732Z,44.65
2022-09-06T01:42:40.688Z,48.32
2022-09-06T01:43:40.688Z,43.71
2022-09-06T01:44:40.679Z,44.16
2022-09-06T02:04:08.114Z,49.17
2022-09-06T02:05:09.164Z,48.14
2022-09-06T02:06:09.121Z,47.73
2022-09-06T02:07:09.706Z,49.56
2022-09-06T02:08:09.091Z,44.70
2022-09-06T02:09:09.092Z,44.52
2022-09-06T02:10:09.711Z,49.24
2022-09-06T02:11:09.125Z,44.71
2022-09-06T02:12:09.138Z,51.34
2022-09-06T02:13:09.179Z,48.89
2022-09-06T02:14:09.065Z,47.55
2022-09-06T02:15:09.071Z,57.56
2022-09-06T02:16:09.037Z,46.31
2022-09-06T02:17:09.138Z,49.51
2022-09-06T02:18:09.025Z,51.24
2022-09-06T02:19:09.038Z,54.16
2022-09-06T02:20:09.623Z,54.13
2022-09-06T02:21:09.128Z,45.25
2022-09-06T02:22:09.013Z,46.71
2022-09-06T02:23:09.002Z,51.36
2022-09-06T02:24:43.157Z,54.80
2022-09-06T02:25:09.027Z,48.14
2022-09-06T02:26:09.077Z,49.59
2022-09-06T02:27:08.968Z,45.21
2022-09-06T02:28:08.995Z,45.11
2022-09-06T02:29:09.022Z,48.40
2022-09-06T02:30:09.011Z,44.75
2022-09-06T02:31:09.104Z,59.59
2022-09-06T02:32:08.970Z,56.67
2022-09-06T02:33:08.952Z,51.20
2022-09-06T02:34:08.961Z,56.83
2022-09-06T02:35:08.978Z,45.97
2022-09-06T02:36:09.033Z,54.80
2022-09-06T02:37:08.912Z,56.90
2022-09-06T02:38:08.904Z,54.66
2022-09-06T02:39:09.914Z,51.74
2022-09-06T02:40:08.965Z,59.08
2022-09-06T02:41:08.906Z,56.91
2022-09-06T02:42:08.928Z,52.10
2022-09-06T02:43:08.930Z,61.36
2022-09-06T02:44:08.879Z,51.03
2022-09-06T02:45:08.946Z,50.02
2022-09-06T02:46:08.965Z,45.95
2022-09-06T02:47:08.962Z,53.87
2022-09-06T02:48:08.869Z,53.46
2022-09-06T02:49:08.882Z,57.25
2022-09-06T02:50:08.860Z,58.77
2022-09-06T02:51:08.794Z,54.19
2022-09-06T02:52:08.827Z,58.96
2022-09-06T02:53:08.808Z,56.60
2022-09-06T02:54:08.812Z,57.48
2022-09-06T02:55:08.801Z,56.92
2022-09-06T02:56:08.773Z,46.10
2022-09-06T02:57:08.811Z,49.87
2022-09-06T02:58:08.763Z,54.58
2022-09-06T02:59:08.789Z,57.06
2022-09-06T03:00:08.793Z,51.36
2022-09-06T03:01:08.771Z,50.21
2022-09-06T03:02:08.769Z,45.87
2022-09-06T03:03:08.752Z,51.34
2022-09-06T03:04:08.750Z,57.80
2022-09-06T03:05:08.750Z,50.17
2022-09-06T03:06:08.682Z,59.89
2022-09-06T03:07:08.670Z,56.11
2022-09-06T03:08:08.686Z,50.92
2022-09-06T03:09:08.767Z,58.30
2022-09-06T03:10:08.701Z,56.53
2022-09-06T03:11:08.660Z,55.86
2022-09-06T03:12:08.624Z,64.87
2022-09-06T03:13:08.611Z,59.70
2022-09-06T03:14:08.650Z,50.94
2022-09-06T03:15:08.690Z,55.56
2022-09-06T03:16:08.637Z,52.07
2022-09-06T03:17:08.649Z,53.67
2022-09-06T03:18:08.619Z,59.38
2022-09-06T03:19:08.619Z,58.27
2022-09-06T03:20:08.601Z,62.67
2022-09-06T03:21:08.580Z,50.20
2022-09-06T03:22:08.622Z,54.25
2022-09-06T03:23:08.591Z,61.88
2022-09-06T03:24:08.555Z,61.03
2022-09-06T03:25:08.519Z,55.65
2022-09-06T03:26:08.511Z,60.69
2022-09-06T03:27:08.542Z,54.44
2022-09-06T03:28:08.536Z,60.89
2022-09-06T03:29:08.531Z,55.80
2022-09-06T03:30:08.527Z,61.35
2022-09-06T03:31:08.612Z,51.75
2022-09-06T03:32:08.472Z,62.27
2022-09-06T03:33:08.525Z,57.23
2022-09-06T03:34:11.133Z,64.58
2022-09-06T03:35:09.468Z,51.46
2022-09-06T03:36:08.485Z,66.42
2022-09-06T03:37:08.446Z,53.31
2022-09-06T03:38:09.469Z,59.97
2022-09-06T03:39:08.456Z,58.49
2022-09-06T03:40:08.480Z,60.11
2022-09-06T03:41:08.408Z,65.40
2022-09-06T03:42:08.457Z,61.55
2022-09-06T03:43:08.432Z,60.50
2022-09-06T03:44:08.424Z,65.67
2022-09-06T03:45:08.414Z,62.46
2022-09-06T03:46:08.401Z,60.65
2022-09-06T03:47:08.358Z,67.64
2022-09-06T04:03:34.969Z,61.42
2022-09-06T04:04:34.972Z,66.62
2022-09-06T04:05:34.957Z,60.30
2022-09-06T04:06:34.972Z,65.80
2022-09-06T04:07:34.997Z,65.14
2022-09-06T04:08:36.081Z,58.31
2022-09-06T04:09:36.103Z,61.25
2022-09-06T04:10:36.070Z,65.53
2022-09-06T04:11:36.126Z,65.28
2022-09-06T04:12:36.095Z,71.18
2022-09-06T04:13:36.094Z,65.02
2022-09-06T04:14:36.066Z,68.26
2022-09-06T04:15:36.051Z,64.93
2022-09-06T04:16:36.081Z,59.09
2022-09-06T04:17:36.079Z,66.18
2022-09-06T04:18:36.018Z,67.87
2022-09-06T04:19:36.023Z,58.97
2022-09-06T04:20:36.030Z,65.97
2022-09-06T04:21:36.025Z,72.17
2022-09-06T04:22:35.989Z,68.32
2022-09-06T04:23:39.783Z,64.60
2022-09-06T04:24:36.953Z,63.77
2022-09-06T04:25:36.028Z,67.40
2022-09-06T04:26:36.725Z,71.44
2022-09-06T04:27:36.533Z,65.89
2022-09-06T04:28:35.956Z,64.56
2022-09-06T04:29:35.961Z,65.75
2022-09-06T04:30:36.063Z,60.53
2022-09-06T04:31:35.929Z,70.87
2022-09-06T04:32:35.886Z,64.08
2022-09-06T04:33:35.920Z,65.12
2022-09-06T04:34:35.895Z,69.68
2022-09-06T04:35:35.913Z,66.78
2022-09-06T04:36:35.893Z,66.71
2022-09-06T04:37:35.900Z,67.45
2022-09-06T04:38:35.904Z,65.97
2022-09-06T04:39:35.953Z,74.15
2022-09-06T04:40:35.954Z,68.23
2022-09-06T04:41:35.913Z,68.77
2022-09-06T04:42:35.862Z,68.16
2022-09-06T04:43:35.825Z,66.90
2022-09-06T04:44:35.910Z,60.79
2022-09-06T04:45:35.944Z,70.65
2022-09-06T04:46:35.824Z,73.08
2022-09-06T04:47:35.798Z,65.06
2022-09-06T04:48:35.819Z,72.56
2022-09-06T04:49:35.799Z,62.34
2022-09-06T04:50:35.814Z,70.06
2022-09-06T04:51:35.856Z,69.79
2022-09-06T04:52:35.800Z,67.02
2022-09-06T04:53:35.806Z,59.75
2022-09-06T04:54:35.826Z,72.57
2022-09-06T04:55:35.841Z,65.53
2022-09-06T04:56:35.859Z,64.38
2022-09-06T04:57:38.183Z,69.04
2022-09-06T04:58:36.764Z,66.48
2022-09-06T04:59:35.789Z,63.00
2022-09-06T05:00:35.692Z,66.32
2022-09-06T05:01:35.832Z,70.23
2022-09-06T05:02:35.794Z,66.06
2022-09-06T05:03:35.817Z,64.72
2022-09-06T05:04:35.724Z,67.30
2022-09-06T05:05:35.806Z,66.08
2022-09-06T05:06:35.731Z,68.60
2022-09-06T05:07:35.805Z,72.27
2022-09-06T05:08:35.700Z,71.13
2022-09-06T05:09:35.788Z,69.76
2022-09-06T05:10:35.749Z,61.29
2022-09-06T05:11:35.727Z,69.47
2022-09-06T05:12:35.682Z,69.15
2022-09-06T05:13:35.625Z,62.90
2022-09-06T05:14:35.649Z,72.49
2022-09-06T05:15:35.661Z,69.90
2022-09-06T05:16:35.658Z,70.10
2022-09-06T05:17:35.621Z,68.86
2022-09-06T05:18:35.633Z,69.95
2022-09-06T05:19:35.639Z,70.41
2022-09-06T05:20:35.560Z,67.68
2022-09-06T05:21:35.594Z,69.12
2022-09-06T05:22:35.555Z,67.72
2022-09-06T05:23:36.227Z,68.20
2022-09-06T05:24:36.610Z,69.16
2022-09-06T05:25:35.547Z,70.57
2022-09-06T05:26:35.517Z,70.95
2022-09-06T05:27:35.528Z,71.43
2022-09-06T05:28:35.549Z,70.57
2022-09-06T05:29:35.545Z,71.07
2022-09-06T05:30:35.527Z,70.67
2022-09-06T05:31:35.591Z,71.21
2022-09-06T05:32:35.462Z,71.50
2022-09-06T05:33:35.511Z,69.66
2022-09-06T05:34:35.524Z,70.90
2022-09-06T05:35:35.536Z,72.46
2022-09-06T05:36:35.411Z,70.84
2022-09-06T05:37:35.431Z,66.97
2022-09-06T05:38:35.447Z,70.12
2022-09-06T05:39:35.483Z,69.77
2022-09-06T05:40:35.432Z,72.29
2022-09-06T05:41:35.442Z,67.52
2022-09-06T05:42:35.441Z,69.58
2022-09-06T05:43:36.733Z,71.57
2022-09-06T05:44:35.426Z,72.04
2022-09-06T05:45:35.415Z,68.90
2022-09-06T05:46:35.415Z,71.11
2022-09-06T05:47:35.407Z,69.38
2022-09-06T05:48:37.217Z,61.98
2022-09-06T05:49:36.342Z,72.37
2022-09-06T05:50:35.405Z,68.07
2022-09-06T05:51:36.246Z,71.85
2022-09-06T05:52:35.376Z,67.83
2022-09-06T05:53:35.338Z,63.30
2022-09-06T05:54:35.443Z,71.77
2022-09-06T05:55:35.283Z,69.21
2022-09-06T05:56:35.383Z,68.77
2022-09-06T05:57:35.356Z,70.63
2022-09-06T05:58:35.277Z,63.77
2022-09-06T05:59:35.287Z,70.87
2022-09-06T06:00:35.320Z,67.45
2022-09-06T06:01:35.395Z,69.57
2022-09-06T06:02:35.327Z,69.61
2022-09-06T06:03:35.259Z,71.11
2022-09-06T06:04:35.213Z,70.13
2022-09-06T06:05:35.365Z,67.75
2022-09-06T06:06:35.240Z,71.43
2022-09-06T06:07:35.182Z,64.43
2022-09-06T06:08:35.211Z,71.90
2022-09-06T06:09:35.202Z,65.14
2022-09-06T06:10:38.443Z,67.29
2022-09-06T06:11:36.208Z,67.71
2022-09-06T06:12:35.180Z,66.47
2022-09-06T06:13:35.154Z,69.54
2022-09-06T06:14:35.214Z,61.60
2022-09-06T06:15:35.143Z,70.95
2022-09-06T06:16:35.153Z,70.91
2022-09-06T06:17:35.116Z,61.01
2022-09-06T06:18:35.110Z,70.47
2022-09-06T06:19:35.147Z,64.17
2022-09-06T06:20:35.134Z,68.06
2022-09-06T06:21:35.107Z,63.59
2022-09-06T06:22:35.093Z,71.44
2022-09-06T06:23:35.127Z,71.21
2022-09-06T06:24:35.038Z,68.36
2022-09-06T06:25:35.046Z,69.41
2022-09-06T06:26:35.058Z,69.10
2022-09-06T06:27:35.083Z,69.00
2022-09-06T06:28:35.046Z,67.83
2022-09-06T06:29:35.041Z,69.70
2022-09-06T06:30:35.039Z,64.89
2022-09-06T06:31:35.117Z,69.36
2022-09-06T06:32:35.011Z,65.68
2022-09-06T06:33:35.002Z,67.71
2022-09-06T06:34:34.973Z,65.89
2022-09-06T06:35:38.303Z,68.91
2022-09-06T06:36:37.060Z,67.12
2022-09-06T06:37:34.967Z,67.18
2022-09-06T06:38:34.950Z,67.29
2022-09-06T06:39:34.984Z,62.00
2022-09-06T06:40:34.983Z,66.74
2022-09-06T06:41:34.944Z,63.10
2022-09-06T06:43:09.157Z,67.24
2022-09-06T06:43:34.870Z,52.19
2022-09-06T06:44:34.899Z,68.53
2022-09-06T06:45:34.930Z,68.36
2022-09-06T06:46:34.884Z,67.65
2022-09-06T06:47:34.890Z,64.10
2022-09-06T06:48:34.872Z,67.55
2022-09-06T06:49:34.855Z,68.96
2022-09-06T06:50:34.855Z,65.19
2022-09-06T06:51:35.382Z,61.40
2022-09-06T06:52:34.849Z,63.90
2022-09-06T06:53:34.873Z,66.19
2022-09-06T06:54:34.857Z,63.12
2022-09-06T06:55:34.824Z,70.57
2022-09-06T06:56:34.869Z,67.37
2022-09-06T06:57:34.806Z,69.19
2022-09-06T06:58:34.804Z,60.65
2022-09-06T06:59:34.803Z,68.96
2022-09-06T07:00:34.855Z,66.57
2022-09-06T07:01:34.949Z,58.77
2022-09-06T07:02:34.766Z,65.07
2022-09-06T07:03:34.777Z,66.39
2022-09-06T07:04:34.788Z,62.51
2022-09-06T07:07:39.495Z,67.86
2022-09-06T07:08:34.735Z,70.20
2022-09-06T07:10:36.730Z,69.29
2022-09-06T07:11:34.697Z,63.89
2022-09-06T07:12:34.703Z,61.13
2022-09-06T07:13:34.674Z,67.17
2022-09-06T07:14:34.737Z,65.97
2022-09-06T07:15:34.679Z,65.78
2022-09-06T07:16:34.794Z,68.30
2022-09-06T07:17:34.686Z,68.82
2022-09-06T07:18:34.652Z,67.31
2022-09-06T07:22:35.628Z,67.38
2022-09-06T07:24:36.636Z,63.74
2022-09-06T07:26:08.708Z,61.14
2022-09-06T07:26:34.658Z,65.87
2022-09-06T07:27:50.463Z,66.30
2022-09-06T07:28:36.551Z,64.46
2022-09-06T07:29:34.584Z,67.55
2022-09-06T07:30:34.626Z,64.02
2022-09-06T07:32:36.553Z,63.92
2022-09-06T07:33:34.542Z,63.19
2022-09-06T07:34:35.515Z,63.37
2022-09-06T07:35:34.564Z,64.15
2022-09-06T07:36:34.504Z,69.68
2022-09-06T07:37:34.544Z,67.30
2022-09-06T07:38:34.527Z,67.73
2022-09-06T07:39:34.523Z,70.50
2022-09-06T07:40:34.531Z,66.76
2022-09-06T07:41:34.477Z,63.91
2022-09-06T07:42:36.413Z,65.61
2022-09-06T07:43:35.483Z,63.22
2022-09-06T07:44:34.461Z,71.06
2022-09-06T07:45:34.493Z,67.88
2022-09-06T07:46:35.518Z,67.45
2022-09-06T07:48:36.447Z,68.86
2022-09-06T07:49:34.963Z,67.18
2022-09-06T07:50:50.615Z,67.96
2022-09-06T07:51:36.425Z,68.82
2022-09-06T07:53:36.765Z,68.86
2022-09-06T07:54:34.495Z,66.08
2022-09-06T07:55:34.438Z,67.78
2022-09-06T07:56:34.411Z,69.61
2022-09-06T07:57:34.407Z,63.16
2022-09-06T07:58:34.408Z,64.54
2022-09-06T07:59:34.337Z,61.68
2022-09-06T08:00:34.492Z,61.90
2022-09-06T08:01:34.449Z,62.27
2022-09-06T08:02:34.388Z,65.41
2022-09-06T08:03:34.347Z,66.96
2022-09-06T08:04:34.312Z,54.26
2022-09-06T08:09:36.298Z,65.94
2022-09-06T08:10:34.306Z,65.72
2022-09-06T08:11:34.309Z,64.03
2022-09-06T08:12:34.276Z,62.28
2022-09-06T08:13:34.252Z,67.28
2022-09-06T08:14:34.255Z,63.53
2022-09-06T08:15:34.256Z,64.68
2022-09-06T08:16:34.264Z,68.92
2022-09-06T08:17:34.230Z,63.84
2022-09-06T08:18:34.210Z,56.62
2022-09-06T08:19:34.215Z,69.72
2022-09-06T08:20:34.210Z,67.36
2022-09-06T08:21:34.170Z,60.17
2022-09-06T08:22:35.406Z,65.42
2022-09-06T08:23:34.187Z,69.38
2022-09-06T08:24:35.102Z,67.02
2022-09-06T08:26:07.737Z,64.50
2022-09-06T08:26:34.283Z,69.64
2022-09-06T08:27:34.814Z,68.43
2022-09-06T08:28:34.667Z,67.86
2022-09-06T08:29:34.222Z,61.67
2022-09-06T08:30:34.182Z,66.37
2022-09-06T08:31:34.318Z,64.42
2022-09-06T08:32:34.276Z,63.37
2022-09-06T08:33:34.902Z,64.73
2022-09-06T08:34:34.109Z,65.72
2022-09-06T08:35:34.051Z,68.40
2022-09-06T08:36:34.147Z,68.15
2022-09-06T08:37:34.064Z,58.18
2022-09-06T08:38:34.539Z,61.42
2022-09-06T08:39:34.167Z,66.54
2022-09-06T08:40:34.076Z,61.71
2022-09-06T08:41:34.068Z,55.49
2022-09-06T08:42:34.120Z,64.17
2022-09-06T08:43:34.882Z,65.36
2022-09-06T08:45:36.092Z,65.13
2022-09-06T08:46:34.078Z,67.12
2022-09-06T08:47:34.070Z,61.39
2022-09-06T08:48:34.993Z,65.30
2022-09-06T08:49:34.666Z,67.67
2022-09-06T08:50:33.981Z,62.90
2022-09-06T08:51:38.387Z,65.34
2022-09-06T08:52:34.977Z,65.06
2022-09-06T08:53:33.953Z,65.54
2022-09-06T08:54:34.836Z,61.94
2022-09-06T08:55:35.876Z,66.21
2022-09-06T08:56:35.894Z,61.21
2022-09-06T08:57:38.240Z,59.65
2022-09-06T08:58:38.683Z,67.30
2022-09-06T08:59:33.967Z,57.25
2022-09-06T09:00:35.694Z,59.77
2022-09-06T09:01:34.041Z,64.28
2022-09-06T09:02:33.949Z,70.38
2022-09-06T09:03:33.890Z,66.91
2022-09-06T09:04:33.918Z,64.00
2022-09-06T09:05:33.831Z,64.01
2022-09-06T09:06:33.859Z,63.50
2022-09-06T09:07:33.834Z,65.38
2022-09-06T09:08:33.862Z,64.31
2022-09-06T09:09:33.917Z,62.21
2022-09-06T09:10:33.836Z,61.60
2022-09-06T09:11:33.871Z,65.52
2022-09-06T09:12:33.827Z,58.30
2022-09-06T09:13:34.896Z,67.53
2022-09-06T09:14:33.945Z,60.59
2022-09-06T09:15:39.575Z,63.34
2022-09-06T09:16:35.928Z,64.24
2022-09-06T09:17:33.868Z,54.67
2022-09-06T09:18:34.410Z,58.36
2022-09-06T09:19:33.846Z,60.81
2022-09-06T09:20:33.819Z,63.97
2022-09-06T09:21:33.741Z,63.76
2022-09-06T09:22:33.819Z,56.70
2022-09-06T09:23:33.718Z,63.32
2022-09-06T09:24:33.781Z,60.30
2022-09-06T09:25:33.707Z,60.94
2022-09-06T09:26:34.725Z,59.71
2022-09-06T09:27:33.712Z,62.67
2022-09-06T09:28:33.717Z,63.83
2022-09-06T09:29:36.409Z,56.84
2022-09-06T09:30:50.279Z,63.73
2022-09-06T09:31:35.803Z,65.23
2022-09-06T09:32:33.719Z,66.11
2022-09-06T09:33:33.778Z,62.90
2022-09-06T09:34:33.873Z,64.24
2022-09-06T09:35:34.546Z,62.92
2022-09-06T09:36:33.667Z,65.68
2022-09-06T09:37:51.062Z,61.35
2022-09-06T09:38:35.633Z,63.77
2022-09-06T09:39:33.749Z,66.11
2022-09-06T09:40:33.664Z,66.73
2022-09-06T09:41:33.651Z,64.73
2022-09-06T09:42:33.606Z,64.41
2022-09-06T09:43:33.651Z,63.39
2022-09-06T09:44:33.664Z,62.01
2022-09-06T09:45:33.665Z,64.49
2022-09-06T09:46:33.671Z,62.56
2022-09-06T09:47:33.608Z,63.57
2022-09-06T09:48:33.576Z,60.74
2022-09-06T09:49:33.586Z,62.35
2022-09-06T09:50:33.561Z,67.72
2022-09-06T09:51:33.621Z,66.94
2022-09-06T09:52:33.568Z,65.77
2022-09-06T09:53:33.642Z,65.62
2022-09-06T09:54:33.532Z,61.52
2022-09-06T09:55:33.593Z,65.64
2022-09-06T09:56:33.563Z,65.25
2022-09-06T09:57:33.502Z,63.42
2022-09-06T09:58:33.598Z,62.50
2022-09-06T09:59:33.499Z,66.05
2022-09-06T10:00:33.565Z,62.20
2022-09-06T10:01:33.502Z,66.36
2022-09-06T10:02:33.485Z,60.92
2022-09-06T10:03:34.145Z,55.41
2022-09-06T10:04:48.770Z,66.01
2022-09-06T10:05:35.501Z,57.53
2022-09-06T10:07:35.438Z,61.52
2022-09-06T10:08:33.450Z,58.50
2022-09-06T10:09:33.427Z,65.59
2022-09-06T10:10:33.404Z,65.80
2022-09-06T10:11:33.482Z,66.43
2022-09-06T10:12:33.708Z,63.80
2022-09-06T10:13:33.450Z,64.99
2022-09-06T10:14:33.402Z,66.62
2022-09-06T10:15:33.451Z,67.06
2022-09-06T10:16:33.439Z,60.39
2022-09-06T10:17:33.457Z,63.23
2022-09-06T10:18:33.426Z,65.40
2022-09-06T10:19:33.398Z,64.41
2022-09-06T10:20:33.436Z,66.98
2022-09-06T10:21:33.351Z,61.56
2022-09-06T10:22:33.362Z,59.37
2022-09-06T10:24:35.343Z,62.84
2022-09-06T10:25:33.305Z,65.82
2022-09-06T10:26:33.922Z,67.95
2022-09-06T10:27:33.279Z,63.99
2022-09-06T10:28:34.308Z,63.64
2022-09-06T10:29:33.311Z,67.70
2022-09-06T10:30:33.335Z,67.25
2022-09-06T10:31:33.330Z,65.01
2022-09-06T10:32:33.289Z,64.19
2022-09-06T10:33:33.357Z,64.56
2022-09-06T10:34:33.294Z,64.10
2022-09-06T10:35:33.280Z,64.19
2022-09-06T10:36:33.319Z,64.46
2022-09-06T10:37:33.287Z,66.32
2022-09-06T10:38:33.290Z,58.93
2022-09-06T10:39:33.356Z,60.46
2022-09-06T10:40:33.241Z,62.03
2022-09-06T10:41:33.276Z,58.81
2022-09-06T10:42:33.237Z,59.98
2022-09-06T10:43:33.187Z,66.50
2022-09-06T10:44:34.237Z,65.84
2022-09-06T10:45:33.216Z,61.93
2022-09-06T10:46:33.360Z,63.86
2022-09-06T10:47:33.174Z,59.82
2022-09-06T10:48:33.225Z,61.84
2022-09-06T10:49:33.208Z,65.82
2022-09-06T10:50:33.186Z,59.91
2022-09-06T10:51:33.201Z,64.81
2022-09-06T10:52:33.212Z,63.66
2022-09-06T10:53:33.193Z,64.60
2022-09-06T10:54:33.212Z,64.24
2022-09-06T10:55:33.120Z,67.74
2022-09-06T10:56:33.117Z,67.73
2022-09-06T11:00:33.108Z,63.43
2022-09-06T11:01:33.140Z,68.08
2022-09-06T11:02:33.455Z,63.45
2022-09-06T11:06:34.045Z,60.40
2022-09-06T11:07:33.066Z,64.17
2022-09-06T11:08:48.659Z,61.91
2022-09-06T11:09:35.025Z,63.85
2022-09-06T11:10:32.999Z,66.02
2022-09-06T11:11:33.018Z,63.14
2022-09-06T11:12:33.013Z,61.71
2022-09-06T11:13:32.988Z,65.69
2022-09-06T11:14:32.964Z,63.31
2022-09-06T11:15:33.141Z,62.25
2022-09-06T11:16:32.977Z,65.73
2022-09-06T11:17:33.007Z,65.65
2022-09-06T11:18:32.970Z,66.45
2022-09-06T11:19:32.988Z,63.00
2022-09-06T11:20:32.935Z,65.49
2022-09-06T11:21:32.976Z,61.26
2022-09-06T11:22:32.940Z,63.46
2022-09-06T11:23:32.958Z,65.31
2022-09-06T11:24:32.952Z,58.10
2022-09-06T11:25:32.909Z,60.67
2022-09-06T11:26:32.900Z,66.76
2022-09-06T11:27:32.907Z,64.76
2022-09-06T11:28:32.891Z,64.13
2022-09-06T11:29:32.873Z,64.25
2022-09-06T11:30:32.877Z,63.71
2022-09-06T11:32:34.920Z,67.77
2022-09-06T11:33:32.879Z,67.02
2022-09-06T11:34:32.855Z,61.66
2022-09-06T11:35:32.832Z,65.01
2022-09-06T11:36:32.854Z,58.34
2022-09-06T11:37:32.900Z,62.42
2022-09-06T11:38:32.845Z,66.32
2022-09-06T11:40:34.811Z,68.20
2022-09-06T11:41:33.806Z,63.48
2022-09-06T11:42:32.826Z,61.44
2022-09-06T11:43:32.868Z,64.40
2022-09-06T11:44:32.821Z,62.94
2022-09-06T11:45:32.812Z,58.19
2022-09-06T11:46:32.793Z,65.08
2022-09-06T11:47:32.749Z,66.81
2022-09-06T11:48:32.758Z,63.52
2022-09-06T11:49:32.761Z,62.79
2022-09-06T11:50:32.841Z,62.10
2022-09-06T11:51:32.737Z,62.89
2022-09-06T11:52:32.770Z,66.76
2022-09-06T11:53:32.771Z,64.07
2022-09-06T11:54:32.745Z,61.77
2022-09-06T11:55:32.706Z,62.56
2022-09-06T11:56:32.718Z,55.69
2022-09-06T11:57:32.695Z,59.56
2022-09-06T11:58:33.708Z,62.45
2022-09-06T11:59:32.740Z,60.73
2022-09-06T12:00:32.739Z,66.80
2022-09-06T12:01:32.669Z,54.62
2022-09-06T12:02:32.805Z,64.87
2022-09-06T12:04:34.720Z,58.85
2022-09-06T12:05:32.726Z,61.30
2022-09-06T12:06:32.656Z,62.91
2022-09-06T12:07:32.696Z,65.93
2022-09-06T12:08:32.681Z,62.07
2022-09-06T12:09:32.706Z,65.66
2022-09-06T12:10:32.718Z,69.00
2022-09-06T12:11:32.614Z,68.14
2022-09-06T12:12:32.692Z,61.74
2022-09-06T12:13:32.662Z,64.01
2022-09-06T12:14:32.604Z,66.93
2022-09-06T12:15:32.627Z,63.89
2022-09-06T12:16:32.603Z,64.78
2022-09-06T12:17:32.592Z,61.24
2022-09-06T12:18:32.582Z,65.83
2022-09-06T12:19:32.559Z,57.75
2022-09-06T12:20:32.575Z,65.62
2022-09-06T12:21:32.553Z,61.08
2022-09-06T12:22:32.561Z,64.98
2022-09-06T12:23:32.545Z,64.90
2022-09-06T12:24:32.565Z,59.38
2022-09-06T12:25:32.516Z,65.29
2022-09-06T12:26:32.649Z,66.91
2022-09-06T12:27:32.573Z,61.16
2022-09-06T12:28:32.500Z,55.27
2022-09-06T12:29:32.536Z,66.78
2022-09-06T12:30:32.864Z,62.05
2022-09-06T12:31:32.781Z,62.00
2022-09-06T12:32:36.626Z,69.30
2022-09-06T12:33:33.545Z,64.46
2022-09-06T12:34:35.265Z,67.13
2022-09-06T12:36:35.498Z,63.12
2022-09-06T12:37:32.450Z,57.60
2022-09-06T12:38:32.449Z,68.81
2022-09-06T12:39:32.494Z,60.16
2022-09-06T12:40:32.505Z,64.43
2022-09-06T12:41:32.579Z,62.02
2022-09-06T12:42:32.426Z,64.85
2022-09-06T12:43:32.467Z,61.62
2022-09-06T12:44:32.395Z,66.35
2022-09-06T12:45:32.395Z,67.81
2022-09-06T12:46:32.426Z,63.80
2022-09-06T12:47:32.384Z,62.62
2022-09-06T12:48:32.473Z,61.84
2022-09-06T12:49:32.366Z,65.04
2022-09-06T12:50:33.263Z,62.33
2022-09-06T12:51:32.354Z,65.01
2022-09-06T12:52:32.417Z,64.18
2022-09-06T12:53:32.432Z,54.59
2022-09-06T12:54:32.378Z,66.06
2022-09-06T12:55:32.343Z,63.18
2022-09-06T12:56:32.335Z,59.80
2022-09-06T12:57:32.386Z,60.82
2022-09-06T12:58:32.359Z,65.33
2022-09-06T12:59:32.398Z,64.58
2022-09-06T13:00:32.379Z,67.19
2022-09-06T13:01:32.406Z,64.76
2022-09-06T13:02:32.427Z,63.33
2022-09-06T13:03:32.255Z,63.37
2022-09-06T13:04:32.304Z,61.83
2022-09-06T13:05:32.258Z,64.49
2022-09-06T13:06:32.258Z,64.21
2022-09-06T13:07:32.296Z,66.64
2022-09-06T13:08:32.233Z,61.63
2022-09-06T13:09:32.307Z,64.07
2022-09-06T13:10:32.245Z,62.62
2022-09-06T13:11:32.280Z,63.05
2022-09-06T13:12:32.246Z,65.26
2022-09-06T13:13:32.210Z,63.14
2022-09-06T13:14:32.285Z,64.84
2022-09-06T13:15:32.224Z,65.04
2022-09-06T13:16:32.221Z,65.64
2022-09-06T13:17:32.219Z,63.38
2022-09-06T13:18:32.288Z,63.81
2022-09-06T13:19:32.305Z,60.69
2022-09-06T13:20:32.204Z,62.22
2022-09-06T13:21:32.153Z,57.30
2022-09-06T13:22:32.205Z,64.48
2022-09-06T13:23:32.195Z,65.64
2022-09-06T13:24:32.197Z,61.15
2022-09-06T13:25:32.180Z,56.62
2022-09-06T13:26:32.262Z,62.12
2022-09-06T13:27:32.121Z,61.25
2022-09-06T13:28:32.089Z,65.98
2022-09-06T13:29:32.118Z,66.13
2022-09-06T13:30:32.096Z,63.96
2022-09-06T13:31:32.220Z,65.12
2022-09-06T13:32:32.106Z,62.11
2022-09-06T13:33:33.011Z,60.46
2022-09-06T13:34:32.114Z,63.21
2022-09-06T13:35:32.079Z,63.69
2022-09-06T13:36:32.141Z,68.75
2022-09-06T13:37:32.062Z,64.59
2022-09-06T13:38:32.078Z,57.38
2022-09-06T13:39:32.118Z,65.21
2022-09-06T13:40:32.073Z,66.54
2022-09-06T13:41:32.043Z,58.49
2022-09-06T13:42:32.080Z,67.13
2022-09-06T13:43:31.999Z,66.77
2022-09-06T13:44:31.994Z,59.52
2022-09-06T13:45:32.029Z,65.29
2022-09-06T13:46:32.071Z,66.96
2022-09-06T13:47:32.028Z,63.88
2022-09-06T13:48:31.992Z,64.51
2022-09-06T13:49:31.970Z,62.64
2022-09-06T13:50:31.971Z,64.57
2022-09-06T13:51:31.962Z,64.11
2022-09-06T13:52:32.005Z,58.02
2022-09-06T13:53:31.939Z,67.36